Airfield :
LOGIN :

Register | Disclaimer

   EN    FR    IT 

 










Legend :    VFR   Marginal VFR   IFR   Intensive IFR   Very Intensive IFR
Visi :
Ceiling :
>= 8 km
>= 3000ft
5 to 8 km
1000 to 3000 ft
1500m to 5 km
500 to 1000 ft
800 to 1500m
200 to 500 ft
< 800m
< 200 ft
Symbols :   Thunderstorms  Fog  Heavy snow  Heavy precipitations  Wind > 20 kt
SIGMETs :     Misc.  Thunderstorms  Icing  Turbulence  Mountain Waves  Volcanic Ashes






- Airport Elevation : 147 ft
- IATA code : DUS


EDDL - Düsseldorf Int.

CURRENT METAR :
  • 062150Z AUTO 22006KT 9999 BKN042 18/11 Q1022 NOSIG

EXPIRED METARs :
  • 062120Z AUTO 24006KT 9999 SCT044 18/10 Q1022 NOSIG
  • 062050Z AUTO 24004KT 9999 OVC044 19/10 Q1022 BECMG 25009KT
  • 062020Z AUTO 24004KT 9999 FEW001 OVC046 19/10 Q1022 NOSIG
  • 061950Z AUTO 25005KT 9999 BKN048 19/09 Q1022 NOSIG
  • 061920Z AUTO 26007KT CAVOK 20/09 Q1022 NOSIG

TAF TAF EDDL
Valid from the 06 at 18:00 until the 08 at 00:00 UTC


061700Z 0618/0724 26008KT 9999 BKN045
PROB30
TEMPO 0704/0706 SHRA BKN012CB
BECMG 0707/0710 31014KT
TEMPO 0712/0717 31015G25KT
BECMG 0718/0721 33008KT



MET'MAP, your aeronautical weather chart ! - Copyright ORBIFLY December 2007 - Disclaimer

ORBIFLY MET'MAP TEAM :

Programming & Development : Alexandra Zaïnal
Original concept : Baudouin d'Aumeries
Technical & hardware support : Manuel Goepfert
Assistance : Marc-Olivier Méhu




SOURCES & CREDITS :

   NOAA